Time;durP1;ratioP1;P1;durP2;ratioP2;P2;SDS_P1;SDS_P2;PMS_P1;PMS_P2;Temp;Humidity;BMP_temperature;BMP_pressure;BME280_temperature;BME280_humidity;BME280_pressure;Samples;Min_cycle;Max_cycle;Signal;HPM_P1;HPM_P2
2023/12/17 10:53:23;;;;;;;;;22.25;21.75;;;;;19.37;39.49;103720.78;5836157;23;46155;-78
2023/12/17 10:55:48;;;;;;;;;21.75;20.75;;;;;19.46;39.62;103721.19;4930144;28;45524;-78
2023/12/17 10:58:18;;;;;;;;;21.00;20.25;;;;;19.58;39.61;103723.06;4936792;28;46024;-78
2023/12/17 11:00:45;;;;;;;;;30.25;24.50;;;;;19.67;39.86;103726.94;4936828;28;45416;-81
2023/12/17 11:03:13;;;;;;;;;24.00;22.25;;;;;19.81;40.10;103727.88;4934302;28;45537;-77
2023/12/17 11:05:56;;;;;;;;;21.25;19.00;;;;;19.80;40.12;103715.63;4936347;28;45429;-79
2023/12/17 11:08:25;;;;;;;;;19.50;17.75;;;;;19.88;40.35;103712.53;4937466;28;45270;-80
2023/12/17 11:10:51;;;;;;;;;21.25;19.75;;;;;19.89;40.19;103715.06;4936894;28;45390;-81
2023/12/17 11:13:21;;;;;;;;;30.25;22.75;;;;;19.98;40.42;103710.16;4948452;28;48154;-81
2023/12/17 11:15:47;;;;;;;;;27.00;25.25;;;;;20.10;40.79;103722.59;4951822;28;45971;-80
2023/12/17 11:18:12;;;;;;;;;22.50;18.25;;;;;20.15;41.40;103709.97;4932141;28;45524;-81
2023/12/17 11:20:41;;;;;;;;;20.00;16.50;;;;;20.05;41.57;103695.59;4937374;28;45398;-77
2023/12/17 11:23:06;;;;;;;;;23.50;20.00;;;;;20.14;41.37;103696.84;4924360;28;46194;-76
2023/12/17 11:25:37;;;;;;;;;23.50;20.00;;;;;20.21;41.44;103684.06;4935760;28;45414;-81
2023/12/17 11:28:02;;;;;;;;;25.00;22.25;;;;;20.31;41.87;103692.25;4924858;28;45468;-78
2023/12/17 11:30:30;;;;;;;;;23.75;22.00;;;;;20.35;41.93;103686.66;4936904;28;45306;-80
2023/12/17 11:32:57;;;;;;;;;21.25;17.75;;;;;20.29;42.36;103658.00;4936133;28;46998;-78
2023/12/17 11:35:22;;;;;;;;;18.50;17.50;;;;;20.28;42.39;103665.06;4935739;28;45460;-80
2023/12/17 11:37:48;;;;;;;;;24.00;19.75;;;;;20.45;42.63;103679.00;4936364;28;45271;-73
2023/12/17 11:40:13;;;;;;;;;23.50;20.50;;;;;20.38;42.60;103661.81;4935878;28;45621;-73
2023/12/17 11:42:40;;;;;;;;;24.25;22.50;;;;;20.51;42.53;103668.00;4934073;28;46132;-70
2023/12/17 11:45:06;;;;;;;;;23.25;20.50;;;;;20.54;42.96;103664.31;4925283;28;45455;-69
2023/12/17 11:47:32;;;;;;;;;21.50;19.75;;;;;20.56;43.35;103670.34;4934937;28;45378;-72
2023/12/17 11:50:01;;;;;;;;;22.25;18.75;;;;;20.58;43.58;103654.41;4935114;28;45697;-71
2023/12/17 11:52:28;;;;;;;;;21.75;19.00;;;;;20.61;44.07;103646.22;4933849;28;45437;-72
2023/12/17 11:55:01;;;;;;;;;22.25;16.50;;;;;20.59;44.61;103643.69;4929768;28;45477;-72
2023/12/17 11:57:27;;;;;;;;;18.25;17.25;;;;;20.55;45.09;103623.69;4929686;28;46851;-72
2023/12/17 11:59:53;;;;;;;;;22.75;19.75;;;;;20.74;45.41;103649.75;4928787;28;45398;-71
2023/12/17 12:02:21;;;;;;;;;20.50;17.75;;;;;20.78;45.46;103646.91;4936165;28;47123;-75
2023/12/17 12:04:47;;;;;;;;;17.00;14.00;;;;;20.81;45.69;103646.72;4936267;28;45443;-79
2023/12/17 12:07:17;;;;;;;;;21.75;15.75;;;;;20.83;45.64;103642.16;4950843;28;45581;-78
2023/12/17 12:09:47;;;;;;;;;18.75;17.75;;;;;20.82;45.61;103638.66;4936502;28;46201;-80
2023/12/17 12:12:19;;;;;;;;;17.75;16.50;;;;;20.89;45.35;103633.81;4925480;28;47162;-81
2023/12/17 12:14:46;;;;;;;;;18.00;18.00;;;;;20.92;45.57;103632.75;4936457;28;46380;-79
2023/12/17 12:17:39;;;;;;;;;21.00;14.50;;;;;20.93;45.47;103626.50;4936905;28;45430;-79
2023/12/17 12:20:13;;;;;;;;;20.50;16.50;;;;;20.94;45.92;103617.63;4936399;28;45561;-81
2023/12/17 12:22:45;;;;;;;;;17.75;14.75;;;;;20.95;45.97;103622.78;4936382;28;45428;-81
2023/12/17 12:25:12;;;;;;;;;14.50;13.25;;;;;20.93;45.77;103610.63;4936237;28;45347;-80
2023/12/17 12:27:37;;;;;;;;;19.75;15.75;;;;;20.92;45.74;103604.47;4936039;28;45446;-80
2023/12/17 12:30:04;;;;;;;;;15.00;14.50;;;;;20.92;45.80;103601.00;4935924;28;45319;-80
2023/12/17 12:32:30;;;;;;;;;19.75;17.50;;;;;20.99;46.02;103607.56;4936200;28;45401;-78
2023/12/17 12:34:59;;;;;;;;;18.25;15.75;;;;;21.00;45.99;103590.72;4946965;28;45798;-81
2023/12/17 12:37:36;;;;;;;;;19.25;15.50;;;;;21.02;46.25;103588.84;4932356;28;45351;-88
2023/12/17 12:40:03;;;;;;;;;18.75;16.75;;;;;21.01;44.52;103581.84;4924187;28;45461;-83
2023/12/17 12:42:29;;;;;;;;;16.00;16.00;;;;;21.01;44.02;103573.91;4936389;28;45381;-84
2023/12/17 12:44:55;;;;;;;;;14.50;14.50;;;;;21.01;43.42;103565.09;4936460;28;45510;-83
2023/12/17 12:47:22;;;;;;;;;16.25;15.25;;;;;20.96;42.58;103553.03;4938055;28;45457;-83
2023/12/17 12:49:47;;;;;;;;;18.50;15.00;;;;;20.95;42.50;103548.69;4927641;28;45282;-83
2023/12/17 12:52:12;;;;;;;;;20.50;16.50;;;;;20.96;42.86;103549.53;4938776;28;45400;-75
2023/12/17 12:54:38;;;;;;;;;15.00;14.00;;;;;20.96;43.09;103546.91;4939024;28;45389;-78
2023/12/17 12:57:04;;;;;;;;;15.50;15.25;;;;;20.94;42.72;103538.22;4935820;28;51129;-78
2023/12/17 12:59:29;;;;;;;;;14.00;14.00;;;;;20.78;42.62;103511.97;4939624;28;45400;-79
2023/12/17 13:01:55;;;;;;;;;19.50;14.25;;;;;20.80;42.35;103510.06;4940648;28;46358;-79
2023/12/17 13:04:20;;;;;;;;;17.50;16.25;;;;;20.91;42.18;103520.75;4939112;28;45601;-72
2023/12/17 13:06:47;;;;;;;;;14.50;14.00;;;;;20.77;42.35;103497.03;4938233;28;45369;-69
2023/12/17 13:09:12;;;;;;;;;15.75;15.75;;;;;20.84;42.04;103496.50;4939179;28;45441;-71
2023/12/17 13:11:38;;;;;;;;;15.25;15.25;;;;;20.93;42.53;103513.53;4938294;28;46019;-70
2023/12/17 13:14:04;;;;;;;;;18.25;15.00;;;;;20.90;42.79;103500.53;4938468;28;46646;-71
2023/12/17 13:16:29;;;;;;;;;16.25;14.00;;;;;20.87;42.79;103490.16;4937302;28;45551;-71
2023/12/17 13:18:56;;;;;;;;;18.00;17.25;;;;;20.89;42.29;103490.91;4938727;28;45458;-71
2023/12/17 13:21:21;;;;;;;;;14.75;14.00;;;;;20.94;42.79;103490.56;4938198;28;45363;-75
2023/12/17 13:23:49;;;;;;;;;15.50;14.25;;;;;20.94;42.63;103486.13;4937588;28;60168;-73
2023/12/17 13:26:15;;;;;;;;;17.25;14.50;;;;;20.84;42.30;103467.38;4937872;28;45401;-71
2023/12/17 13:28:41;;;;;;;;;18.25;15.25;;;;;20.87;42.80;103468.97;4938477;28;45450;-73
2023/12/17 13:31:07;;;;;;;;;13.25;13.00;;;;;20.82;43.06;103461.38;4938266;28;45736;-71
2023/12/17 13:33:32;;;;;;;;;13.25;13.25;;;;;20.87;42.85;103470.81;4938419;28;45430;-73
2023/12/17 13:35:58;;;;;;;;;13.00;13.00;;;;;20.88;42.84;103472.47;4938531;28;45379;-72
2023/12/17 13:38:23;;;;;;;;;18.75;15.75;;;;;20.93;42.69;103467.69;4938699;28;45245;-72
2023/12/17 13:40:49;;;;;;;;;8.50;7.75;;;;;20.93;42.67;103467.69;4938578;28;47163;-77
2023/12/17 13:43:15;;;;;;;;;14.75;12.25;;;;;20.88;42.72;103457.44;4938551;28;45465;-75
2023/12/17 13:45:40;;;;;;;;;12.00;10.75;;;;;20.81;42.61;103443.81;4938150;28;45469;-75
2023/12/17 13:48:06;;;;;;;;;15.50;13.00;;;;;20.90;43.11;103460.81;4938385;28;45381;-75
2023/12/17 13:50:31;;;;;;;;;17.00;12.50;;;;;20.67;42.93;103414.81;4938187;28;46026;-76
2023/12/17 13:52:57;;;;;;;;;15.25;12.25;;;;;20.79;43.24;103432.47;4931044;28;45423;-77
2023/12/17 13:55:24;;;;;;;;;14.50;12.50;;;;;20.93;43.24;103457.97;4938631;28;45377;-81
2023/12/17 13:57:49;;;;;;;;;12.75;11.50;;;;;20.91;43.52;103449.28;4937405;28;45388;-80
2023/12/17 14:00:15;;;;;;;;;13.00;13.00;;;;;20.91;43.63;103444.00;4937800;28;46580;-75
2023/12/17 14:02:40;;;;;;;;;15.50;14.25;;;;;20.84;43.61;103430.34;4938336;28;45382;-78
2023/12/17 14:05:06;;;;;;;;;17.25;15.25;;;;;20.90;43.64;103434.34;4937489;28;45363;-77
2023/12/17 14:07:31;;;;;;;;;18.25;15.75;;;;;20.95;43.68;103434.88;4936754;28;45525;-76
2023/12/17 14:09:56;;;;;;;;;15.50;15.00;;;;;20.78;43.84;103403.50;4937844;28;45378;-77
2023/12/17 14:12:22;;;;;;;;;17.00;14.00;;;;;20.94;44.06;103424.41;4938391;28;45413;-79
2023/12/17 14:14:47;;;;;;;;;13.75;13.75;;;;;20.90;44.22;103412.34;4937880;28;45292;-77
2023/12/17 14:17:12;;;;;;;;;17.00;16.25;;;;;20.96;44.10;103422.50;4938034;28;45461;-78
2023/12/17 14:19:38;;;;;;;;;15.50;15.00;;;;;20.94;44.51;103413.81;4937522;28;47087;-77
2023/12/17 14:22:04;;;;;;;;;17.25;17.25;;;;;20.99;44.67;103416.13;4929507;28;45621;-75
2023/12/17 14:24:30;;;;;;;;;19.75;16.75;;;;;20.93;44.54;103407.69;4935014;28;45331;-75
2023/12/17 14:26:56;;;;;;;;;22.50;17.25;;;;;20.92;45.12;103405.97;4932725;28;45391;-78
2023/12/17 14:29:22;;;;;;;;;19.00;18.75;;;;;21.02;44.88;103424.75;4927582;28;46130;-79
2023/12/17 14:31:47;;;;;;;;;18.75;16.75;;;;;20.79;44.30;103378.72;4934234;28;45408;-79
2023/12/17 14:34:12;;;;;;;;;17.25;17.00;;;;;20.99;44.88;103422.28;4937384;28;45358;-78
2023/12/17 14:36:38;;;;;;;;;18.00;17.00;;;;;20.86;44.02;103395.84;4938314;28;45462;-73
2023/12/17 14:39:04;;;;;;;;;17.50;14.50;;;;;21.02;43.92;103418.59;4938232;28;46235;-75
2023/12/17 14:41:29;;;;;;;;;18.25;15.75;;;;;21.00;43.41;103413.38;4938092;28;45452;-74
2023/12/17 14:43:55;;;;;;;;;18.00;15.75;;;;;20.92;43.70;103407.81;4938259;28;45402;-75
2023/12/17 14:46:20;;;;;;;;;18.00;14.50;;;;;20.99;43.63;103421.44;4938477;28;45613;-75
2023/12/17 14:48:45;;;;;;;;;16.25;13.50;;;;;20.98;43.70;103423.22;4937045;28;61183;-71
2023/12/17 14:51:11;;;;;;;;;16.75;14.75;;;;;20.96;43.42;103417.22;4937581;28;45375;-75
2023/12/17 14:53:37;;;;;;;;;14.00;13.00;;;;;20.94;43.59;103411.19;4938076;28;45420;-77
2023/12/17 14:56:03;;;;;;;;;14.75;13.75;;;;;20.89;43.50;103400.09;4937642;28;45840;-75
2023/12/17 14:58:28;;;;;;;;;16.50;14.25;;;;;20.87;43.85;103397.53;4937350;28;45520;-77
2023/12/17 15:00:56;;;;;;;;;14.25;10.50;;;;;20.89;43.76;103406.22;4937701;28;45511;-75
2023/12/17 15:03:21;;;;;;;;;13.25;13.25;;;;;20.81;43.32;103396.19;4937301;28;45445;-76
2023/12/17 15:05:47;;;;;;;;;18.50;15.75;;;;;20.64;43.21;103376.22;4936708;28;45461;-79
2023/12/17 15:08:12;;;;;;;;;13.00;12.00;;;;;20.78;43.46;103390.25;4938046;28;47385;-77
2023/12/17 15:10:38;;;;;;;;;13.50;13.00;;;;;20.60;43.42;103372.09;4935929;28;45546;-75
2023/12/17 15:13:03;;;;;;;;;14.50;14.50;;;;;20.79;43.81;103400.72;4937141;28;45501;-76
2023/12/17 15:15:29;;;;;;;;;14.25;14.25;;;;;20.70;43.39;103386.38;4936738;28;45441;-75
2023/12/17 15:17:54;;;;;;;;;14.75;14.25;;;;;20.55;43.50;103358.34;4936728;28;45439;-75
2023/12/17 15:20:19;;;;;;;;;15.75;14.25;;;;;20.66;43.42;103386.69;4935620;28;45461;-75
2023/12/17 15:22:45;;;;;;;;;13.75;12.00;;;;;20.83;43.47;103402.22;4936844;28;45401;-75
2023/12/17 15:25:11;;;;;;;;;13.50;13.00;;;;;20.58;43.57;103364.25;4936826;28;45441;-76
2023/12/17 15:27:36;;;;;;;;;12.75;12.75;;;;;20.82;43.80;103404.94;4936593;28;45549;-75
2023/12/17 15:30:02;;;;;;;;;13.00;12.25;;;;;20.69;43.42;103378.50;4936755;28;45395;-76
2023/12/17 15:32:28;;;;;;;;;14.25;14.25;;;;;20.68;43.56;103375.06;4936531;28;45297;-76
2023/12/17 15:34:53;;;;;;;;;13.50;12.25;;;;;20.68;43.73;103377.69;4936699;28;45360;-75
2023/12/17 15:37:18;;;;;;;;;13.00;13.00;;;;;20.81;43.67;103397.97;4937300;28;46130;-82
2023/12/17 15:39:44;;;;;;;;;17.75;14.00;;;;;20.79;43.75;103395.44;4937322;28;46765;-76
2023/12/17 15:42:09;;;;;;;;;18.00;14.50;;;;;20.78;43.49;103401.69;4937388;28;45395;-75
2023/12/17 15:44:35;;;;;;;;;17.75;16.50;;;;;20.77;43.93;103397.34;4937402;28;45311;-77
2023/12/17 15:47:00;;;;;;;;;17.25;14.00;;;;;20.69;44.05;103389.09;4936679;28;47008;-80
2023/12/17 15:49:25;;;;;;;;;15.75;15.50;;;;;20.79;43.80;103408.66;4937227;28;45311;-77
2023/12/17 15:51:51;;;;;;;;;18.25;13.75;;;;;20.74;43.64;103403.69;4937306;28;45315;-82
2023/12/17 15:54:16;;;;;;;;;13.75;13.00;;;;;20.77;43.67;103407.94;4936783;28;45455;-76
2023/12/17 15:56:42;;;;;;;;;12.00;12.00;;;;;20.75;43.63;103404.56;4937029;28;46376;-79
2023/12/17 15:59:08;;;;;;;;;14.50;13.50;;;;;20.72;43.65;103395.03;4951585;28;45435;-77
2023/12/17 16:01:33;;;;;;;;;13.25;10.25;;;;;20.79;43.19;103408.66;4936787;28;45454;-79
2023/12/17 16:03:59;;;;;;;;;17.00;12.00;;;;;20.74;43.52;103403.69;4935824;28;45562;-80
2023/12/17 16:06:24;;;;;;;;;13.00;12.75;;;;;20.73;43.40;103401.16;4936840;28;45986;-80
2023/12/17 16:08:50;;;;;;;;;18.25;12.75;;;;;20.73;43.46;103401.16;4936977;28;45439;-79
2023/12/17 16:11:15;;;;;;;;;15.00;13.75;;;;;20.71;43.17;103395.16;4932949;28;45508;-75
2023/12/17 16:13:41;;;;;;;;;16.00;14.75;;;;;20.80;43.51;103417.44;4917548;28;45280;-76
2023/12/17 16:16:06;;;;;;;;;13.00;11.00;;;;;20.79;43.40;103415.78;4934686;28;45438;-76
2023/12/17 16:18:32;;;;;;;;;12.75;12.75;;;;;20.76;44.01;103413.34;4936391;28;45364;-75
2023/12/17 16:20:58;;;;;;;;;16.25;13.25;;;;;20.70;43.41;103396.94;4937485;28;45344;-75
2023/12/17 16:23:24;;;;;;;;;16.50;12.75;;;;;20.81;43.58;103420.00;4937601;28;45393;-78
2023/12/17 16:25:49;;;;;;;;;10.75;10.75;;;;;20.71;43.58;103403.91;4926398;28;46199;-76
2023/12/17 16:28:15;;;;;;;;;13.75;11.75;;;;;20.81;43.55;103414.72;4939359;28;45437;-75
2023/12/17 16:30:40;;;;;;;;;11.50;11.50;;;;;20.67;43.05;103394.50;4939162;28;45421;-75
2023/12/17 16:33:06;;;;;;;;;15.00;13.00;;;;;20.79;43.37;103413.94;4939558;28;45362;-75
2023/12/17 16:35:31;;;;;;;;;11.50;11.00;;;;;20.80;43.36;103412.16;4938960;28;46125;-75
2023/12/17 16:37:56;;;;;;;;;14.75;13.00;;;;;20.79;43.16;103416.59;4939585;28;45350;-74
2023/12/17 16:40:22;;;;;;;;;19.75;13.00;;;;;20.80;43.18;103414.81;4939193;28;45776;-75
2023/12/17 16:42:48;;;;;;;;;7.75;7.00;;;;;20.79;43.63;103408.66;4939311;28;46050;-76
2023/12/17 16:45:13;;;;;;;;;17.50;15.25;;;;;20.74;43.25;103403.69;4938621;28;46208;-75
2023/12/17 16:47:38;;;;;;;;;14.50;13.00;;;;;20.76;43.39;103403.59;4938926;28;45509;-75
2023/12/17 16:50:05;;;;;;;;;14.00;12.25;;;;;20.65;43.43;103391.13;4939378;28;45330;-75
2023/12/17 16:52:31;;;;;;;;;15.00;13.50;;;;;20.79;43.12;103406.00;4938996;28;45331;-76
2023/12/17 16:54:57;;;;;;;;;12.75;11.50;;;;;20.72;43.71;103396.81;4939033;28;45246;-75
2023/12/17 16:57:22;;;;;;;;;15.00;13.00;;;;;20.77;43.26;103415.88;4934542;28;45240;-76
2023/12/17 16:59:48;;;;;;;;;16.25;13.00;;;;;20.78;43.14;103417.56;4930800;28;45371;-75
2023/12/17 17:02:13;;;;;;;;;15.50;13.50;;;;;20.79;43.48;103418.41;4939134;28;45236;-75
2023/12/17 17:04:38;;;;;;;;;15.75;13.75;;;;;20.62;43.45;103405.41;4938627;28;46130;-76
2023/12/17 17:07:07;;;;;;;;;20.50;15.25;;;;;20.79;43.26;103426.34;4938825;28;45521;-75
2023/12/17 17:09:32;;;;;;;;;13.75;13.50;;;;;20.73;42.89;103422.34;4939049;28;45339;-77
2023/12/17 17:11:58;;;;;;;;;12.75;11.50;;;;;20.79;43.66;103423.72;4938704;28;45390;-76
2023/12/17 17:14:23;;;;;;;;;15.50;12.50;;;;;20.79;43.16;103421.88;4938373;28;46115;-77
2023/12/17 17:16:48;;;;;;;;;18.25;13.75;;;;;20.79;43.11;103431.66;4938360;28;55353;-74
2023/12/17 17:19:14;;;;;;;;;13.50;13.00;;;;;20.79;43.46;103421.88;4928653;28;45465;-77
2023/12/17 17:21:39;;;;;;;;;17.25;14.25;;;;;20.80;43.48;103425.38;4938553;28;45439;-77
2023/12/17 17:24:05;;;;;;;;;17.25;17.25;;;;;20.62;43.05;103394.84;4938862;28;46372;-75
2023/12/17 17:26:31;;;;;;;;;17.75;15.00;;;;;20.79;43.45;103418.41;4938370;28;45323;-76
2023/12/17 17:28:57;;;;;;;;;21.75;16.50;;;;;20.79;42.98;103421.88;4938607;28;45491;-76
2023/12/17 17:31:22;;;;;;;;;19.50;18.50;;;;;20.68;42.73;103393.56;4938473;28;45447;-76
2023/12/17 17:33:48;;;;;;;;;21.50;20.75;;;;;20.68;42.80;103403.31;4937908;28;46846;-76
2023/12/17 17:36:14;;;;;;;;;24.75;22.50;;;;;20.80;43.13;103422.75;4938302;28;45408;-76
2023/12/17 17:38:41;;;;;;;;;22.25;21.75;;;;;20.79;43.25;103421.88;4938824;28;45703;-77
2023/12/17 17:41:07;;;;;;;;;23.50;21.75;;;;;20.74;42.66;103411.63;4938525;28;45396;-77
2023/12/17 17:43:32;;;;;;;;;25.50;21.75;;;;;20.73;43.07;103407.31;4938165;28;46137;-76
2023/12/17 17:45:58;;;;;;;;;21.00;18.75;;;;;20.63;43.03;103391.22;4937685;28;45450;-76
2023/12/17 17:48:25;;;;;;;;;20.00;18.50;;;;;20.69;42.84;103400.53;4938448;28;45978;-76
2023/12/17 17:50:51;;;;;;;;;19.25;19.00;;;;;20.77;43.07;103417.66;4938130;28;45335;-76
2023/12/17 17:53:16;;;;;;;;;20.75;18.75;;;;;20.76;42.85;103410.69;4937904;28;47537;-75
2023/12/17 17:55:41;;;;;;;;;20.50;20.25;;;;;20.77;43.14;103413.22;4932574;28;45323;-76
2023/12/17 17:58:07;;;;;;;;;18.75;17.50;;;;;20.79;42.73;103416.59;4937681;28;45356;-76
2023/12/17 18:00:32;;;;;;;;;24.50;20.50;;;;;20.79;43.08;103419.25;4938240;28;45469;-76
2023/12/17 18:02:59;;;;;;;;;19.00;16.75;;;;;20.72;42.78;103415.34;4937847;28;45278;-74
2023/12/17 18:05:24;;;;;;;;;22.00;19.50;;;;;20.68;42.73;103412.09;4937585;28;45513;-75
2023/12/17 18:07:50;;;;;;;;;23.50;21.00;;;;;20.73;42.89;103420.53;4938204;28;45363;-76
2023/12/17 18:10:15;;;;;;;;;20.25;18.00;;;;;20.72;42.95;103420.63;4936596;28;45457;-75
2023/12/17 18:12:40;;;;;;;;;20.75;19.50;;;;;20.74;43.04;103427.50;4937503;28;47242;-75
2023/12/17 18:15:06;;;;;;;;;22.25;21.25;;;;;20.77;42.52;103426.44;4937445;28;51328;-75
2023/12/17 18:17:32;;;;;;;;;20.25;18.50;;;;;20.66;42.55;103416.63;4938095;28;45334;-75
2023/12/17 18:19:59;;;;;;;;;18.25;17.25;;;;;20.59;42.79;103416.22;4937770;28;45478;-75
2023/12/17 18:22:25;;;;;;;;;19.25;16.25;;;;;20.66;42.67;103413.16;4937663;28;45374;-75
2023/12/17 18:24:50;;;;;;;;;22.00;19.75;;;;;20.71;42.58;103427.72;4937511;28;45378;-76
2023/12/17 18:27:16;;;;;;;;;21.25;19.75;;;;;20.73;42.68;103432.91;4937453;28;45358;-75
2023/12/17 18:29:41;;;;;;;;;19.25;17.50;;;;;20.77;42.67;103446.75;4937762;28;45418;-76
2023/12/17 18:32:06;;;;;;;;;21.00;18.25;;;;;20.72;42.72;103433.88;4937227;28;63509;-79
2023/12/17 18:34:32;;;;;;;;;19.50;18.50;;;;;20.72;42.48;103433.88;4937484;28;46572;-78
2023/12/17 18:36:57;;;;;;;;;26.50;18.75;;;;;20.65;42.72;103425.53;4937940;28;45319;-77
2023/12/17 18:39:23;;;;;;;;;19.25;17.50;;;;;20.57;42.77;103410.19;4937237;28;45300;-79
2023/12/17 18:41:48;;;;;;;;;21.75;18.00;;;;;20.55;42.77;103414.75;4937391;28;46004;-77
2023/12/17 18:44:14;;;;;;;;;19.25;19.25;;;;;20.76;42.45;103451.22;4928036;28;45643;-77
2023/12/17 18:46:39;;;;;;;;;20.50;19.00;;;;;20.69;42.68;103436.72;4934410;28;45486;-79
2023/12/17 18:49:04;;;;;;;;;20.50;18.00;;;;;20.71;42.46;103440.13;4937358;28;45404;-77
2023/12/17 18:51:31;;;;;;;;;19.25;17.25;;;;;20.70;42.67;103441.06;4937214;28;45442;-80
2023/12/17 18:53:56;;;;;;;;;22.50;16.75;;;;;20.74;42.53;103451.31;4922214;28;45331;-76
2023/12/17 18:56:21;;;;;;;;;23.25;19.75;;;;;20.73;42.22;103452.28;4928780;28;45362;-80
2023/12/17 18:58:47;;;;;;;;;21.25;20.50;;;;;20.73;42.30;103446.16;4936813;28;45294;-79
2023/12/17 19:01:12;;;;;;;;;22.75;21.75;;;;;20.69;42.40;103440.22;4934958;28;46106;-79
2023/12/17 19:03:38;;;;;;;;;24.75;19.25;;;;;20.57;42.78;103417.28;4936501;28;45495;-80
2023/12/17 19:06:04;;;;;;;;;22.25;18.50;;;;;20.72;42.50;103436.50;4937068;28;45362;-78
2023/12/17 19:08:29;;;;;;;;;21.00;18.50;;;;;20.57;42.57;103418.13;4936964;28;45375;-79
2023/12/17 19:10:55;;;;;;;;;21.25;19.25;;;;;20.69;42.75;103437.56;4936224;28;57447;-77
2023/12/17 19:13:20;;;;;;;;;20.00;18.00;;;;;20.65;42.67;103429.97;4936753;28;45592;-79
2023/12/17 19:15:46;;;;;;;;;24.25;19.50;;;;;20.71;42.56;103445.41;4934486;28;45441;-76
2023/12/17 19:18:12;;;;;;;;;24.00;21.25;;;;;20.71;42.83;103446.25;4935004;28;45483;-76
2023/12/17 19:20:39;;;;;;;;;24.50;21.25;;;;;20.70;42.75;103446.34;4936759;28;46567;-75
2023/12/17 19:23:04;;;;;;;;;23.25;21.00;;;;;20.55;42.54;103424.47;4936703;28;45465;-76
2023/12/17 19:25:30;;;;;;;;;21.50;20.00;;;;;20.70;42.58;103454.28;4935978;28;45293;-76
2023/12/17 19:27:55;;;;;;;;;28.75;24.25;;;;;20.70;42.86;103462.22;4936962;28;45422;-75
2023/12/17 19:30:20;;;;;;;;;25.75;22.75;;;;;20.68;42.55;103459.72;4936473;28;46941;-76
2023/12/17 19:32:46;;;;;;;;;25.75;20.25;;;;;20.69;42.55;103460.53;4922870;28;45332;-75
2023/12/17 19:35:11;;;;;;;;;18.25;16.00;;;;;20.55;43.01;103443.84;4935714;28;45318;-76
2023/12/17 19:37:36;;;;;;;;;29.25;26.75;;;;;20.68;42.53;103454.41;4935191;28;45526;-76
2023/12/17 19:40:02;;;;;;;;;23.25;23.25;;;;;20.65;42.70;103448.47;4935714;28;46679;-76
2023/12/17 19:42:28;;;;;;;;;21.50;20.50;;;;;20.68;42.72;103451.78;4936347;28;45449;-76
2023/12/17 19:44:54;;;;;;;;;23.00;23.00;;;;;20.40;42.43;103414.84;4936265;28;45442;-75
2023/12/17 19:47:20;;;;;;;;;23.50;23.25;;;;;20.68;42.39;103453.56;4936299;28;45535;-76
2023/12/17 19:49:45;;;;;;;;;26.00;23.75;;;;;20.67;42.40;103443.91;4936311;28;46068;-76
2023/12/17 19:52:11;;;;;;;;;26.00;25.50;;;;;20.53;42.70;103416.66;4936087;28;45339;-78
2023/12/17 19:54:38;;;;;;;;;29.75;23.75;;;;;20.62;42.46;103437.16;4932432;28;45503;-76
2023/12/17 19:57:05;;;;;;;;;27.75;25.75;;;;;20.67;42.17;103450.06;4930740;28;45430;-81
2023/12/17 19:59:30;;;;;;;;;29.75;28.25;;;;;20.66;42.39;103455.47;4937900;28;46083;-76
2023/12/17 20:01:57;;;;;;;;;25.00;23.00;;;;;20.62;42.34;103447.75;4940518;28;45406;-79
2023/12/17 20:04:22;;;;;;;;;27.50;26.00;;;;;20.65;42.66;103454.63;4929059;28;45419;-80
2023/12/17 20:06:48;;;;;;;;;30.50;27.50;;;;;20.62;42.37;103449.53;4931207;28;45379;-78
2023/12/17 20:09:13;;;;;;;;;26.75;24.50;;;;;20.65;42.57;103451.97;4953658;28;48209;-78
2023/12/17 20:11:39;;;;;;;;;27.00;25.50;;;;;20.66;42.66;103452.84;4939840;28;45360;-75
2023/12/17 20:14:04;;;;;;;;;29.00;28.50;;;;;20.63;42.29;103445.94;4933338;28;45487;-77
2023/12/17 20:16:30;;;;;;;;;23.75;23.00;;;;;20.56;42.58;103436.72;4939826;28;45463;-76
2023/12/17 20:18:55;;;;;;;;;27.75;26.00;;;;;20.60;42.34;103438.22;4954439;28;46093;-78
2023/12/17 20:21:20;;;;;;;;;28.50;25.50;;;;;20.67;42.53;103446.56;4939608;28;47005;-80
2023/12/17 20:23:47;;;;;;;;;28.25;28.25;;;;;20.40;42.43;103403.44;4939541;28;45300;-76
2023/12/17 20:26:12;;;;;;;;;32.75;29.25;;;;;20.66;42.69;103443.06;4939670;28;45522;-81
2023/12/17 20:28:38;;;;;;;;;28.75;25.75;;;;;20.63;42.37;103441.47;4938333;28;45267;-77
2023/12/17 20:31:04;;;;;;;;;25.50;24.75;;;;;20.50;42.73;103422.16;4928797;28;45322;-77
2023/12/17 20:33:29;;;;;;;;;27.50;27.50;;;;;20.63;42.40;103444.13;4939670;28;45373;-79
2023/12/17 20:35:55;;;;;;;;;28.50;28.50;;;;;20.67;42.55;103446.56;4938973;28;45459;-78
2023/12/17 20:38:20;;;;;;;;;29.25;27.50;;;;;20.54;43.05;103420.97;4939161;28;46375;-79
2023/12/17 20:40:46;;;;;;;;;30.75;28.75;;;;;20.68;42.74;103440.34;4939121;28;45354;-78
2023/12/17 20:43:12;;;;;;;;;32.50;28.75;;;;;20.58;42.71;103430.38;4939783;28;45343;-79
2023/12/17 20:45:39;;;;;;;;;29.00;26.00;;;;;20.59;42.84;103437.38;4938885;28;45730;-79
2023/12/17 20:48:05;;;;;;;;;25.25;25.25;;;;;20.62;43.05;103439.81;4939053;28;46426;-78
2023/12/17 20:50:31;;;;;;;;;29.75;28.25;;;;;20.67;42.95;103455.34;4938603;28;45442;-79
2023/12/17 20:52:57;;;;;;;;;26.75;24.75;;;;;20.62;42.81;103447.75;4939103;28;45434;-78
2023/12/17 20:55:23;;;;;;;;;29.75;26.75;;;;;20.59;42.70;103437.38;4938850;28;45463;-77
2023/12/17 20:57:49;;;;;;;;;30.75;26.75;;;;;20.68;42.79;103456.22;4938977;28;45939;-76
2023/12/17 21:00:14;;;;;;;;;32.75;30.75;;;;;20.50;42.75;103430.09;4938080;28;45414;-77
2023/12/17 21:02:40;;;;;;;;;27.50;26.75;;;;;20.55;42.81;103429.75;4939332;28;45334;-78
2023/12/17 21:05:05;;;;;;;;;30.25;29.75;;;;;20.67;42.98;103443.91;4938525;28;45553;-77
2023/12/17 21:07:31;;;;;;;;;28.50;28.50;;;;;20.66;43.03;103440.41;4936228;28;46909;-78
2023/12/17 21:09:57;;;;;;;;;27.75;27.75;;;;;20.56;42.75;103428.78;4939062;28;45419;-77
2023/12/17 21:12:22;;;;;;;;;34.00;29.25;;;;;20.59;43.15;103437.38;4938933;28;45434;-79
2023/12/17 21:14:47;;;;;;;;;32.50;28.75;;;;;20.63;42.56;103444.13;4938789;28;45457;-78
2023/12/17 21:17:13;;;;;;;;;29.50;27.25;;;;;20.51;42.72;103415.91;4938942;28;46125;-78
2023/12/17 21:19:38;;;;;;;;;31.00;30.25;;;;;20.65;42.76;103444.03;4938393;28;45393;-76
2023/12/17 21:22:05;;;;;;;;;33.00;28.50;;;;;20.57;42.97;103428.72;4938596;28;45291;-78
2023/12/17 21:24:30;;;;;;;;;28.75;27.00;;;;;20.63;42.64;103432.72;4938936;28;45545;-77
2023/12/17 21:26:56;;;;;;;;;30.50;29.00;;;;;20.63;42.71;103443.31;4938343;28;46738;-77
2023/12/17 21:29:21;;;;;;;;;30.00;28.50;;;;;20.61;42.73;103435.47;4938706;28;45278;-77
2023/12/17 21:31:46;;;;;;;;;30.50;28.00;;;;;20.58;42.86;103429.56;4938640;28;45280;-76
2023/12/17 21:34:12;;;;;;;;;29.50;28.75;;;;;20.53;42.73;103427.25;4938428;28;45353;-77
2023/12/17 21:36:38;;;;;;;;;29.50;25.75;;;;;20.59;42.95;103440.03;4938589;28;47033;-77
2023/12/17 21:39:03;;;;;;;;;34.75;26.75;;;;;20.63;42.97;103448.59;4938865;28;45198;-79
2023/12/17 21:41:28;;;;;;;;;29.00;28.75;;;;;20.48;42.77;103418.78;4938345;28;45311;-81
2023/12/17 21:43:55;;;;;;;;;31.75;27.50;;;;;20.59;42.50;103450.59;4953203;28;45255;-74
2023/12/17 21:46:20;;;;;;;;;30.50;28.50;;;;;20.55;42.58;103433.25;4936945;28;47267;-72
2023/12/17 21:48:46;;;;;;;;;33.25;31.25;;;;;20.57;43.05;103434.00;4937496;28;52201;-72
2023/12/17 21:51:11;;;;;;;;;29.25;28.50;;;;;20.60;42.67;103441.72;4938093;28;45331;-72
2023/12/17 21:53:37;;;;;;;;;30.00;25.75;;;;;20.68;42.79;103448.28;4936000;28;45360;-70
2023/12/17 21:56:02;;;;;;;;;26.50;26.25;;;;;20.68;42.93;103450.91;4929610;28;45489;-71